sensor_id;sensor_type;location;lat;lon;timestamp;P1;durP1;ratioP1;P2;durP2;ratioP2
5052;SDS011;2545;50.892;5.740;2023-02-21T00:02:14;37.07;;;19.30;;
5052;SDS011;2545;50.892;5.740;2023-02-21T00:04:58;43.63;;;19.60;;
5052;SDS011;2545;50.892;5.740;2023-02-21T00:07:41;34.30;;;19.70;;
5052;SDS011;2545;50.892;5.740;2023-02-21T00:10:25;43.07;;;19.33;;
5052;SDS011;2545;50.892;5.740;2023-02-21T00:13:09;32.07;;;18.37;;
5052;SDS011;2545;50.892;5.740;2023-02-21T00:15:54;34.23;;;20.13;;
5052;SDS011;2545;50.892;5.740;2023-02-21T00:18:38;38.10;;;18.30;;
5052;SDS011;2545;50.892;5.740;2023-02-21T00:21:22;39.80;;;19.90;;
5052;SDS011;2545;50.892;5.740;2023-02-21T00:24:07;37.00;;;19.17;;
5052;SDS011;2545;50.892;5.740;2023-02-21T00:26:54;34.90;;;18.97;;
5052;SDS011;2545;50.892;5.740;2023-02-21T00:29:38;34.77;;;18.53;;
5052;SDS011;2545;50.892;5.740;2023-02-21T00:32:22;34.03;;;19.70;;
5052;SDS011;2545;50.892;5.740;2023-02-21T00:35:07;37.53;;;19.47;;
5052;SDS011;2545;50.892;5.740;2023-02-21T00:37:51;39.43;;;18.60;;
5052;SDS011;2545;50.892;5.740;2023-02-21T00:40:35;38.60;;;20.33;;
5052;SDS011;2545;50.892;5.740;2023-02-21T00:43:19;43.47;;;18.33;;
5052;SDS011;2545;50.892;5.740;2023-02-21T00:46:10;34.63;;;18.73;;
5052;SDS011;2545;50.892;5.740;2023-02-21T00:48:54;44.27;;;19.27;;
5052;SDS011;2545;50.892;5.740;2023-02-21T00:51:38;38.57;;;17.77;;
5052;SDS011;2545;50.892;5.740;2023-02-21T00:54:22;36.07;;;18.90;;
5052;SDS011;2545;50.892;5.740;2023-02-21T00:57:06;30.23;;;18.67;;
5052;SDS011;2545;50.892;5.740;2023-02-21T00:59:49;33.97;;;18.43;;
5052;SDS011;2545;50.892;5.740;2023-02-21T01:02:34;42.50;;;21.07;;
5052;SDS011;2545;50.892;5.740;2023-02-21T01:05:17;48.90;;;21.50;;
5052;SDS011;2545;50.892;5.740;2023-02-21T01:08:01;39.37;;;17.97;;
5052;SDS011;2545;50.892;5.740;2023-02-21T01:10:45;36.83;;;19.00;;
5052;SDS011;2545;50.892;5.740;2023-02-21T01:13:29;38.53;;;19.80;;
5052;SDS011;2545;50.892;5.740;2023-02-21T01:16:13;46.97;;;20.53;;
5052;SDS011;2545;50.892;5.740;2023-02-21T01:18:57;44.63;;;19.47;;
5052;SDS011;2545;50.892;5.740;2023-02-21T01:21:41;46.63;;;20.50;;
5052;SDS011;2545;50.892;5.740;2023-02-21T01:24:25;38.23;;;20.37;;
5052;SDS011;2545;50.892;5.740;2023-02-21T01:27:08;41.50;;;19.57;;
5052;SDS011;2545;50.892;5.740;2023-02-21T01:29:52;39.40;;;20.27;;
5052;SDS011;2545;50.892;5.740;2023-02-21T01:32:36;40.57;;;20.47;;
5052;SDS011;2545;50.892;5.740;2023-02-21T01:35:20;39.13;;;20.60;;
5052;SDS011;2545;50.892;5.740;2023-02-21T01:38:04;44.00;;;22.50;;
5052;SDS011;2545;50.892;5.740;2023-02-21T01:40:48;48.00;;;22.93;;
5052;SDS011;2545;50.892;5.740;2023-02-21T01:43:32;53.10;;;23.37;;
5052;SDS011;2545;50.892;5.740;2023-02-21T01:46:17;41.30;;;22.03;;
5052;SDS011;2545;50.892;5.740;2023-02-21T01:49:09;50.80;;;23.70;;
5052;SDS011;2545;50.892;5.740;2023-02-21T01:51:59;38.97;;;20.80;;
5052;SDS011;2545;50.892;5.740;2023-02-21T01:54:47;49.77;;;22.20;;
5052;SDS011;2545;50.892;5.740;2023-02-21T01:57:34;43.63;;;21.30;;
5052;SDS011;2545;50.892;5.740;2023-02-21T02:00:18;46.60;;;22.27;;
5052;SDS011;2545;50.892;5.740;2023-02-21T02:03:03;51.07;;;23.23;;
5052;SDS011;2545;50.892;5.740;2023-02-21T02:06:13;48.80;;;21.60;;
5052;SDS011;2545;50.892;5.740;2023-02-21T02:08:57;41.90;;;20.77;;
5052;SDS011;2545;50.892;5.740;2023-02-21T02:31:31;44.00;;;21.77;;
5052;SDS011;2545;50.892;5.740;2023-02-21T02:45:35;44.83;;;20.83;;
5052;SDS011;2545;50.892;5.740;2023-02-21T02:50:46;45.57;;;21.40;;
5052;SDS011;2545;50.892;5.740;2023-02-21T02:53:15;39.63;;;19.73;;
5052;SDS011;2545;50.892;5.740;2023-02-21T02:55:47;41.57;;;21.47;;
5052;SDS011;2545;50.892;5.740;2023-02-21T02:58:16;43.37;;;21.33;;
5052;SDS011;2545;50.892;5.740;2023-02-21T03:00:46;44.07;;;20.10;;
5052;SDS011;2545;50.892;5.740;2023-02-21T03:03:31;46.33;;;21.07;;
5052;SDS011;2545;50.892;5.740;2023-02-21T03:06:05;47.37;;;21.83;;
5052;SDS011;2545;50.892;5.740;2023-02-21T03:08:50;41.53;;;18.90;;
5052;SDS011;2545;50.892;5.740;2023-02-21T03:11:29;46.13;;;21.17;;
5052;SDS011;2545;50.892;5.740;2023-02-21T03:13:57;44.70;;;21.57;;
5052;SDS011;2545;50.892;5.740;2023-02-21T03:16:38;51.17;;;22.90;;
5052;SDS011;2545;50.892;5.740;2023-02-21T03:19:16;51.53;;;24.03;;
5052;SDS011;2545;50.892;5.740;2023-02-21T03:21:51;54.77;;;24.80;;
5052;SDS011;2545;50.892;5.740;2023-02-21T03:24:20;46.83;;;23.50;;
5052;SDS011;2545;50.892;5.740;2023-02-21T03:26:50;56.90;;;22.50;;
5052;SDS011;2545;50.892;5.740;2023-02-21T03:29:17;52.73;;;24.93;;
5052;SDS011;2545;50.892;5.740;2023-02-21T03:31:45;46.93;;;24.00;;
5052;SDS011;2545;50.892;5.740;2023-02-21T03:34:13;53.23;;;24.30;;
5052;SDS011;2545;50.892;5.740;2023-02-21T03:36:39;56.30;;;22.47;;
5052;SDS011;2545;50.892;5.740;2023-02-21T03:39:05;56.80;;;22.40;;
5052;SDS011;2545;50.892;5.740;2023-02-21T03:41:31;62.53;;;24.80;;
5052;SDS011;2545;50.892;5.740;2023-02-21T03:43:56;49.40;;;21.97;;
5052;SDS011;2545;50.892;5.740;2023-02-21T03:46:22;48.10;;;22.10;;
5052;SDS011;2545;50.892;5.740;2023-02-21T03:48:47;49.53;;;22.27;;
5052;SDS011;2545;50.892;5.740;2023-02-21T03:51:12;53.23;;;22.17;;
5052;SDS011;2545;50.892;5.740;2023-02-21T03:53:37;47.27;;;20.60;;
5052;SDS011;2545;50.892;5.740;2023-02-21T03:56:03;53.10;;;21.97;;
5052;SDS011;2545;50.892;5.740;2023-02-21T03:58:28;50.83;;;23.07;;
5052;SDS011;2545;50.892;5.740;2023-02-21T04:00:54;57.43;;;22.50;;
5052;SDS011;2545;50.892;5.740;2023-02-21T04:03:19;51.40;;;22.67;;
5052;SDS011;2545;50.892;5.740;2023-02-21T04:05:45;49.80;;;20.80;;
5052;SDS011;2545;50.892;5.740;2023-02-21T04:08:10;41.40;;;20.87;;
5052;SDS011;2545;50.892;5.740;2023-02-21T04:10:35;50.30;;;23.00;;
5052;SDS011;2545;50.892;5.740;2023-02-21T04:13:01;53.90;;;21.30;;
5052;SDS011;2545;50.892;5.740;2023-02-21T04:15:26;47.47;;;20.40;;
5052;SDS011;2545;50.892;5.740;2023-02-21T04:17:51;51.47;;;21.67;;
5052;SDS011;2545;50.892;5.740;2023-02-21T04:20:16;51.70;;;21.80;;
5052;SDS011;2545;50.892;5.740;2023-02-21T04:22:42;43.07;;;20.47;;
5052;SDS011;2545;50.892;5.740;2023-02-21T04:25:08;52.60;;;20.43;;
5052;SDS011;2545;50.892;5.740;2023-02-21T04:27:34;57.33;;;21.60;;
5052;SDS011;2545;50.892;5.740;2023-02-21T04:30:00;47.70;;;20.20;;
5052;SDS011;2545;50.892;5.740;2023-02-21T04:32:25;53.90;;;21.40;;
5052;SDS011;2545;50.892;5.740;2023-02-21T04:34:51;50.50;;;19.93;;
5052;SDS011;2545;50.892;5.740;2023-02-21T04:37:16;51.43;;;21.00;;
5052;SDS011;2545;50.892;5.740;2023-02-21T04:39:41;46.93;;;21.40;;
5052;SDS011;2545;50.892;5.740;2023-02-21T04:42:07;54.93;;;23.10;;
5052;SDS011;2545;50.892;5.740;2023-02-21T04:44:34;46.30;;;21.70;;
5052;SDS011;2545;50.892;5.740;2023-02-21T04:47:00;54.53;;;21.23;;
5052;SDS011;2545;50.892;5.740;2023-02-21T04:49:25;52.70;;;23.10;;
5052;SDS011;2545;50.892;5.740;2023-02-21T04:51:51;45.37;;;21.60;;
5052;SDS011;2545;50.892;5.740;2023-02-21T04:54:17;46.67;;;19.57;;
5052;SDS011;2545;50.892;5.740;2023-02-21T04:56:43;44.47;;;19.80;;
5052;SDS011;2545;50.892;5.740;2023-02-21T04:59:08;43.10;;;20.13;;
5052;SDS011;2545;50.892;5.740;2023-02-21T05:01:33;44.57;;;20.67;;
5052;SDS011;2545;50.892;5.740;2023-02-21T05:03:59;50.20;;;21.00;;
5052;SDS011;2545;50.892;5.740;2023-02-21T05:06:25;47.63;;;19.90;;
5052;SDS011;2545;50.892;5.740;2023-02-21T05:08:51;46.13;;;21.10;;
5052;SDS011;2545;50.892;5.740;2023-02-21T05:11:17;44.03;;;19.80;;
5052;SDS011;2545;50.892;5.740;2023-02-21T05:13:44;40.57;;;20.47;;
5052;SDS011;2545;50.892;5.740;2023-02-21T05:16:10;52.90;;;20.67;;
5052;SDS011;2545;50.892;5.740;2023-02-21T05:18:36;46.37;;;20.07;;
5052;SDS011;2545;50.892;5.740;2023-02-21T05:21:03;51.83;;;20.13;;
5052;SDS011;2545;50.892;5.740;2023-02-21T05:23:29;49.47;;;20.43;;
5052;SDS011;2545;50.892;5.740;2023-02-21T05:26:19;41.40;;;19.73;;
5052;SDS011;2545;50.892;5.740;2023-02-21T05:28:43;48.70;;;19.87;;
5052;SDS011;2545;50.892;5.740;2023-02-21T05:31:09;64.90;;;21.57;;
5052;SDS011;2545;50.892;5.740;2023-02-21T05:33:34;65.70;;;22.47;;
5052;SDS011;2545;50.892;5.740;2023-02-21T05:35:59;50.93;;;21.83;;
5052;SDS011;2545;50.892;5.740;2023-02-21T05:38:25;64.23;;;22.17;;
5052;SDS011;2545;50.892;5.740;2023-02-21T05:40:51;58.67;;;22.00;;
5052;SDS011;2545;50.892;5.740;2023-02-21T05:43:16;56.67;;;23.00;;
5052;SDS011;2545;50.892;5.740;2023-02-21T05:45:42;61.23;;;22.10;;
5052;SDS011;2545;50.892;5.740;2023-02-21T05:48:07;61.03;;;22.03;;
5052;SDS011;2545;50.892;5.740;2023-02-21T05:50:32;66.27;;;24.57;;
5052;SDS011;2545;50.892;5.740;2023-02-21T05:52:58;59.47;;;24.00;;
5052;SDS011;2545;50.892;5.740;2023-02-21T05:55:24;63.03;;;23.67;;
5052;SDS011;2545;50.892;5.740;2023-02-21T05:57:49;65.83;;;26.73;;
5052;SDS011;2545;50.892;5.740;2023-02-21T06:00:19;72.87;;;25.00;;
5052;SDS011;2545;50.892;5.740;2023-02-21T06:02:50;76.63;;;26.93;;
5052;SDS011;2545;50.892;5.740;2023-02-21T06:05:16;74.30;;;26.00;;
5052;SDS011;2545;50.892;5.740;2023-02-21T06:07:45;69.13;;;27.00;;
5052;SDS011;2545;50.892;5.740;2023-02-21T06:10:11;71.80;;;28.30;;
5052;SDS011;2545;50.892;5.740;2023-02-21T06:12:37;85.77;;;27.13;;
5052;SDS011;2545;50.892;5.740;2023-02-21T06:15:02;94.40;;;27.90;;
5052;SDS011;2545;50.892;5.740;2023-02-21T06:17:31;73.33;;;26.47;;
5052;SDS011;2545;50.892;5.740;2023-02-21T06:20:03;87.87;;;26.00;;
5052;SDS011;2545;50.892;5.740;2023-02-21T06:22:30;68.60;;;24.50;;
5052;SDS011;2545;50.892;5.740;2023-02-21T06:24:55;83.63;;;26.57;;
5052;SDS011;2545;50.892;5.740;2023-02-21T06:27:21;60.97;;;25.33;;
5052;SDS011;2545;50.892;5.740;2023-02-21T06:29:46;84.97;;;30.13;;
5052;SDS011;2545;50.892;5.740;2023-02-21T06:32:11;79.33;;;27.10;;
5052;SDS011;2545;50.892;5.740;2023-02-21T06:34:37;75.10;;;25.83;;
5052;SDS011;2545;50.892;5.740;2023-02-21T06:37:02;78.40;;;25.07;;
5052;SDS011;2545;50.892;5.740;2023-02-21T06:39:27;63.97;;;23.87;;
5052;SDS011;2545;50.892;5.740;2023-02-21T06:41:53;62.20;;;23.27;;
5052;SDS011;2545;50.892;5.740;2023-02-21T06:44:18;76.73;;;26.10;;
5052;SDS011;2545;50.892;5.740;2023-02-21T06:46:44;52.57;;;20.17;;
5052;SDS011;2545;50.892;5.740;2023-02-21T06:49:10;74.13;;;24.60;;
5052;SDS011;2545;50.892;5.740;2023-02-21T06:51:38;71.13;;;24.30;;
5052;SDS011;2545;50.892;5.740;2023-02-21T06:54:05;77.87;;;25.57;;
5052;SDS011;2545;50.892;5.740;2023-02-21T06:56:34;76.00;;;24.77;;
5052;SDS011;2545;50.892;5.740;2023-02-21T06:59:00;68.07;;;23.33;;
5052;SDS011;2545;50.892;5.740;2023-02-21T07:01:25;74.60;;;24.13;;
5052;SDS011;2545;50.892;5.740;2023-02-21T07:03:52;85.17;;;25.27;;
5052;SDS011;2545;50.892;5.740;2023-02-21T07:06:19;70.33;;;23.97;;
5052;SDS011;2545;50.892;5.740;2023-02-21T07:08:45;67.13;;;22.30;;
5052;SDS011;2545;50.892;5.740;2023-02-21T07:11:10;65.80;;;23.67;;
5052;SDS011;2545;50.892;5.740;2023-02-21T07:13:36;71.07;;;24.60;;
5052;SDS011;2545;50.892;5.740;2023-02-21T07:16:02;61.50;;;21.73;;
5052;SDS011;2545;50.892;5.740;2023-02-21T07:18:28;53.70;;;21.17;;
5052;SDS011;2545;50.892;5.740;2023-02-21T07:20:53;68.43;;;23.33;;
5052;SDS011;2545;50.892;5.740;2023-02-21T07:23:19;74.63;;;23.67;;
5052;SDS011;2545;50.892;5.740;2023-02-21T07:25:44;66.33;;;23.07;;
5052;SDS011;2545;50.892;5.740;2023-02-21T07:28:10;67.27;;;23.93;;
5052;SDS011;2545;50.892;5.740;2023-02-21T07:30:35;60.77;;;21.47;;
5052;SDS011;2545;50.892;5.740;2023-02-21T07:33:01;66.03;;;23.63;;
5052;SDS011;2545;50.892;5.740;2023-02-21T07:35:26;72.03;;;22.60;;
5052;SDS011;2545;50.892;5.740;2023-02-21T07:37:51;53.97;;;21.90;;
5052;SDS011;2545;50.892;5.740;2023-02-21T07:40:18;58.23;;;22.60;;
5052;SDS011;2545;50.892;5.740;2023-02-21T07:42:43;62.93;;;21.63;;
5052;SDS011;2545;50.892;5.740;2023-02-21T07:45:11;54.83;;;21.77;;
5052;SDS011;2545;50.892;5.740;2023-02-21T07:47:38;61.20;;;20.50;;
5052;SDS011;2545;50.892;5.740;2023-02-21T07:50:03;57.87;;;20.27;;
5052;SDS011;2545;50.892;5.740;2023-02-21T07:52:29;49.63;;;20.93;;
5052;SDS011;2545;50.892;5.740;2023-02-21T07:54:54;53.50;;;19.90;;
5052;SDS011;2545;50.892;5.740;2023-02-21T07:57:20;48.77;;;19.53;;
5052;SDS011;2545;50.892;5.740;2023-02-21T07:59:46;60.53;;;21.40;;
5052;SDS011;2545;50.892;5.740;2023-02-21T08:02:11;48.37;;;20.83;;
5052;SDS011;2545;50.892;5.740;2023-02-21T08:04:37;55.73;;;20.80;;
5052;SDS011;2545;50.892;5.740;2023-02-21T08:07:03;67.63;;;21.50;;
5052;SDS011;2545;50.892;5.740;2023-02-21T08:09:29;54.23;;;22.17;;
5052;SDS011;2545;50.892;5.740;2023-02-21T08:11:55;54.97;;;19.67;;
5052;SDS011;2545;50.892;5.740;2023-02-21T08:14:20;50.83;;;19.93;;
5052;SDS011;2545;50.892;5.740;2023-02-21T08:16:46;54.10;;;20.40;;
5052;SDS011;2545;50.892;5.740;2023-02-21T08:19:11;47.70;;;18.87;;
5052;SDS011;2545;50.892;5.740;2023-02-21T08:21:37;45.73;;;19.30;;
5052;SDS011;2545;50.892;5.740;2023-02-21T08:24:03;49.27;;;19.20;;
5052;SDS011;2545;50.892;5.740;2023-02-21T08:26:28;41.53;;;16.60;;
5052;SDS011;2545;50.892;5.740;2023-02-21T08:28:54;38.37;;;16.80;;
5052;SDS011;2545;50.892;5.740;2023-02-21T08:31:19;41.07;;;15.93;;
5052;SDS011;2545;50.892;5.740;2023-02-21T08:33:45;45.80;;;18.03;;
5052;SDS011;2545;50.892;5.740;2023-02-21T08:36:10;42.93;;;17.37;;
5052;SDS011;2545;50.892;5.740;2023-02-21T08:38:36;42.30;;;17.37;;
5052;SDS011;2545;50.892;5.740;2023-02-21T08:41:03;39.63;;;16.70;;
5052;SDS011;2545;50.892;5.740;2023-02-21T08:43:30;45.63;;;18.40;;
5052;SDS011;2545;50.892;5.740;2023-02-21T08:45:56;44.93;;;17.30;;
5052;SDS011;2545;50.892;5.740;2023-02-21T08:48:21;32.63;;;14.63;;
5052;SDS011;2545;50.892;5.740;2023-02-21T08:50:46;42.37;;;16.00;;
5052;SDS011;2545;50.892;5.740;2023-02-21T08:53:12;37.70;;;16.97;;
5052;SDS011;2545;50.892;5.740;2023-02-21T08:55:38;33.80;;;16.07;;
5052;SDS011;2545;50.892;5.740;2023-02-21T08:58:03;29.33;;;14.23;;
5052;SDS011;2545;50.892;5.740;2023-02-21T09:00:29;32.73;;;14.40;;
5052;SDS011;2545;50.892;5.740;2023-02-21T09:02:54;36.83;;;14.00;;
5052;SDS011;2545;50.892;5.740;2023-02-21T09:05:23;36.63;;;15.90;;
5052;SDS011;2545;50.892;5.740;2023-02-21T09:07:51;33.97;;;13.77;;
5052;SDS011;2545;50.892;5.740;2023-02-21T09:10:19;36.47;;;15.47;;
5052;SDS011;2545;50.892;5.740;2023-02-21T09:12:45;35.47;;;14.77;;
5052;SDS011;2545;50.892;5.740;2023-02-21T09:15:13;31.60;;;14.73;;
5052;SDS011;2545;50.892;5.740;2023-02-21T09:17:39;35.27;;;15.67;;
5052;SDS011;2545;50.892;5.740;2023-02-21T09:20:06;31.40;;;14.33;;
5052;SDS011;2545;50.892;5.740;2023-02-21T09:22:33;33.60;;;12.43;;
5052;SDS011;2545;50.892;5.740;2023-02-21T09:24:59;25.13;;;12.50;;
5052;SDS011;2545;50.892;5.740;2023-02-21T09:27:25;33.40;;;13.10;;
5052;SDS011;2545;50.892;5.740;2023-02-21T09:30:07;33.90;;;15.47;;
5052;SDS011;2545;50.892;5.740;2023-02-21T09:32:38;27.80;;;13.90;;
5052;SDS011;2545;50.892;5.740;2023-02-21T09:35:05;25.77;;;13.20;;
5052;SDS011;2545;50.892;5.740;2023-02-21T09:37:30;27.27;;;12.80;;
5052;SDS011;2545;50.892;5.740;2023-02-21T09:39:56;26.77;;;12.40;;
5052;SDS011;2545;50.892;5.740;2023-02-21T09:42:23;26.57;;;12.90;;
5052;SDS011;2545;50.892;5.740;2023-02-21T09:44:53;24.50;;;12.20;;
5052;SDS011;2545;50.892;5.740;2023-02-21T09:47:25;31.83;;;14.70;;
5052;SDS011;2545;50.892;5.740;2023-02-21T09:50:06;33.93;;;15.73;;
5052;SDS011;2545;50.892;5.740;2023-02-21T09:52:37;33.53;;;17.13;;
5052;SDS011;2545;50.892;5.740;2023-02-21T09:57:58;54.43;;;20.17;;
5052;SDS011;2545;50.892;5.740;2023-02-21T10:00:25;48.17;;;20.90;;
5052;SDS011;2545;50.892;5.740;2023-02-21T10:09:16;35.43;;;17.00;;
5052;SDS011;2545;50.892;5.740;2023-02-21T10:14:58;40.37;;;17.63;;
5052;SDS011;2545;50.892;5.740;2023-02-21T10:20:26;30.37;;;14.90;;
5052;SDS011;2545;50.892;5.740;2023-02-21T10:22:53;25.53;;;13.23;;
5052;SDS011;2545;50.892;5.740;2023-02-21T10:28:07;32.20;;;17.50;;
5052;SDS011;2545;50.892;5.740;2023-02-21T10:30:38;43.93;;;21.00;;
5052;SDS011;2545;50.892;5.740;2023-02-21T10:33:04;43.97;;;22.47;;
5052;SDS011;2545;50.892;5.740;2023-02-21T10:35:35;36.80;;;18.33;;
5052;SDS011;2545;50.892;5.740;2023-02-21T10:38:03;30.17;;;14.93;;
5052;SDS011;2545;50.892;5.740;2023-02-21T10:46:17;32.20;;;16.50;;
5052;SDS011;2545;50.892;5.740;2023-02-21T10:48:47;29.73;;;14.87;;
5052;SDS011;2545;50.892;5.740;2023-02-21T10:51:17;34.27;;;15.77;;
5052;SDS011;2545;50.892;5.740;2023-02-21T10:53:54;36.60;;;17.83;;
5052;SDS011;2545;50.892;5.740;2023-02-21T10:56:49;37.43;;;19.77;;
5052;SDS011;2545;50.892;5.740;2023-02-21T10:59:20;48.83;;;19.43;;
5052;SDS011;2545;50.892;5.740;2023-02-21T11:01:49;33.87;;;17.33;;
5052;SDS011;2545;50.892;5.740;2023-02-21T11:06:49;44.50;;;21.60;;
5052;SDS011;2545;50.892;5.740;2023-02-21T11:15:29;33.80;;;17.23;;
5052;SDS011;2545;50.892;5.740;2023-02-21T11:17:39;36.37;;;18.43;;
5052;SDS011;2545;50.892;5.740;2023-02-21T11:22:39;31.43;;;15.70;;
5052;SDS011;2545;50.892;5.740;2023-02-21T11:28:05;29.87;;;18.73;;
5052;SDS011;2545;50.892;5.740;2023-02-21T11:30:50;33.87;;;17.83;;
5052;SDS011;2545;50.892;5.740;2023-02-21T11:33:30;31.57;;;17.03;;
5052;SDS011;2545;50.892;5.740;2023-02-21T11:36:13;32.67;;;16.60;;
5052;SDS011;2545;50.892;5.740;2023-02-21T11:38:44;35.27;;;18.37;;
5052;SDS011;2545;50.892;5.740;2023-02-21T11:44:01;32.80;;;17.07;;
5052;SDS011;2545;50.892;5.740;2023-02-21T11:46:45;38.20;;;17.90;;
5052;SDS011;2545;50.892;5.740;2023-02-21T11:51:53;36.93;;;19.20;;
5052;SDS011;2545;50.892;5.740;2023-02-21T11:54:19;40.33;;;20.23;;
5052;SDS011;2545;50.892;5.740;2023-02-21T12:05:33;31.03;;;14.53;;
5052;SDS011;2545;50.892;5.740;2023-02-21T12:10:43;29.20;;;15.57;;
5052;SDS011;2545;50.892;5.740;2023-02-21T12:16:22;34.07;;;15.60;;
5052;SDS011;2545;50.892;5.740;2023-02-21T12:21:46;32.00;;;14.77;;
5052;SDS011;2545;50.892;5.740;2023-02-21T12:37:51;27.03;;;14.10;;
5052;SDS011;2545;50.892;5.740;2023-02-21T12:48:46;33.83;;;15.50;;
5052;SDS011;2545;50.892;5.740;2023-02-21T12:51:19;33.27;;;17.40;;
5052;SDS011;2545;50.892;5.740;2023-02-21T12:53:56;33.70;;;15.73;;
5052;SDS011;2545;50.892;5.740;2023-02-21T12:56:34;24.33;;;14.57;;
5052;SDS011;2545;50.892;5.740;2023-02-21T13:01:58;25.63;;;12.90;;
5052;SDS011;2545;50.892;5.740;2023-02-21T13:04:49;24.50;;;13.27;;
5052;SDS011;2545;50.892;5.740;2023-02-21T13:07:22;28.60;;;13.30;;
5052;SDS011;2545;50.892;5.740;2023-02-21T13:10:02;25.03;;;12.97;;
5052;SDS011;2545;50.892;5.740;2023-02-21T13:12:56;20.40;;;11.20;;
5052;SDS011;2545;50.892;5.740;2023-02-21T13:15:26;25.00;;;12.27;;
5052;SDS011;2545;50.892;5.740;2023-02-21T13:20:36;22.97;;;11.90;;
5052;SDS011;2545;50.892;5.740;2023-02-21T13:23:05;24.67;;;12.37;;
5052;SDS011;2545;50.892;5.740;2023-02-21T13:28:55;24.73;;;11.60;;
5052;SDS011;2545;50.892;5.740;2023-02-21T13:31:22;24.97;;;13.03;;
5052;SDS011;2545;50.892;5.740;2023-02-21T13:33:51;26.87;;;14.10;;
5052;SDS011;2545;50.892;5.740;2023-02-21T13:36:30;18.53;;;11.30;;
5052;SDS011;2545;50.892;5.740;2023-02-21T13:41:50;19.03;;;11.37;;
5052;SDS011;2545;50.892;5.740;2023-02-21T13:44:29;21.80;;;11.80;;
5052;SDS011;2545;50.892;5.740;2023-02-21T13:49:39;23.03;;;13.30;;
5052;SDS011;2545;50.892;5.740;2023-02-21T13:57:39;16.43;;;9.87;;
5052;SDS011;2545;50.892;5.740;2023-02-21T14:02:54;18.83;;;10.77;;
5052;SDS011;2545;50.892;5.740;2023-02-21T14:06:14;19.60;;;11.17;;
5052;SDS011;2545;50.892;5.740;2023-02-21T14:13:48;20.47;;;10.83;;
5052;SDS011;2545;50.892;5.740;2023-02-21T14:16:18;21.30;;;10.97;;
5052;SDS011;2545;50.892;5.740;2023-02-21T14:18:53;22.43;;;11.40;;
5052;SDS011;2545;50.892;5.740;2023-02-21T14:21:39;20.47;;;11.13;;
5052;SDS011;2545;50.892;5.740;2023-02-21T14:24:12;19.23;;;10.60;;
5052;SDS011;2545;50.892;5.740;2023-02-21T14:29:10;15.10;;;9.70;;
5052;SDS011;2545;50.892;5.740;2023-02-21T14:31:54;20.47;;;9.50;;
5052;SDS011;2545;50.892;5.740;2023-02-21T14:37:14;16.33;;;10.27;;
5052;SDS011;2545;50.892;5.740;2023-02-21T14:39:42;13.80;;;9.30;;
5052;SDS011;2545;50.892;5.740;2023-02-21T14:42:21;18.43;;;10.83;;
5052;SDS011;2545;50.892;5.740;2023-02-21T14:45:28;16.20;;;9.43;;
5052;SDS011;2545;50.892;5.740;2023-02-21T14:47:58;16.97;;;10.53;;
5052;SDS011;2545;50.892;5.740;2023-02-21T14:50:41;19.60;;;10.67;;
5052;SDS011;2545;50.892;5.740;2023-02-21T14:56:36;22.00;;;11.43;;
5052;SDS011;2545;50.892;5.740;2023-02-21T15:01:41;21.87;;;12.33;;
5052;SDS011;2545;50.892;5.740;2023-02-21T15:04:24;18.97;;;12.20;;
5052;SDS011;2545;50.892;5.740;2023-02-21T15:12:31;19.03;;;11.33;;
5052;SDS011;2545;50.892;5.740;2023-02-21T15:15:01;20.93;;;11.87;;
5052;SDS011;2545;50.892;5.740;2023-02-21T15:17:26;21.50;;;12.83;;
5052;SDS011;2545;50.892;5.740;2023-02-21T15:20:08;20.67;;;12.20;;
5052;SDS011;2545;50.892;5.740;2023-02-21T15:22:39;17.87;;;11.60;;
5052;SDS011;2545;50.892;5.740;2023-02-21T15:27:36;19.63;;;12.40;;
5052;SDS011;2545;50.892;5.740;2023-02-21T15:30:17;24.27;;;13.17;;
5052;SDS011;2545;50.892;5.740;2023-02-21T15:35:44;22.33;;;12.27;;
5052;SDS011;2545;50.892;5.740;2023-02-21T15:38:28;22.40;;;13.63;;
5052;SDS011;2545;50.892;5.740;2023-02-21T15:41:20;25.80;;;14.23;;
5052;SDS011;2545;50.892;5.740;2023-02-21T15:52:25;24.17;;;14.60;;
5052;SDS011;2545;50.892;5.740;2023-02-21T15:55:14;23.67;;;15.40;;
5052;SDS011;2545;50.892;5.740;2023-02-21T15:57:43;25.67;;;14.73;;
5052;SDS011;2545;50.892;5.740;2023-02-21T16:11:43;28.73;;;14.50;;
5052;SDS011;2545;50.892;5.740;2023-02-21T16:14:16;28.33;;;15.90;;
5052;SDS011;2545;50.892;5.740;2023-02-21T16:16:49;28.50;;;16.03;;
5052;SDS011;2545;50.892;5.740;2023-02-21T16:19:21;31.03;;;16.27;;
5052;SDS011;2545;50.892;5.740;2023-02-21T16:21:47;23.80;;;15.63;;
5052;SDS011;2545;50.892;5.740;2023-02-21T16:27:03;27.07;;;15.13;;
5052;SDS011;2545;50.892;5.740;2023-02-21T16:29:30;38.87;;;19.70;;
5052;SDS011;2545;50.892;5.740;2023-02-21T16:31:56;32.30;;;18.57;;
5052;SDS011;2545;50.892;5.740;2023-02-21T16:34:21;30.83;;;16.83;;
5052;SDS011;2545;50.892;5.740;2023-02-21T16:36:48;29.67;;;16.57;;
5052;SDS011;2545;50.892;5.740;2023-02-21T16:39:18;35.00;;;16.63;;
5052;SDS011;2545;50.892;5.740;2023-02-21T16:41:44;39.40;;;20.33;;
5052;SDS011;2545;50.892;5.740;2023-02-21T16:44:09;33.97;;;18.50;;
5052;SDS011;2545;50.892;5.740;2023-02-21T16:46:34;28.03;;;14.80;;
5052;SDS011;2545;50.892;5.740;2023-02-21T16:49:00;33.70;;;15.70;;
5052;SDS011;2545;50.892;5.740;2023-02-21T16:51:25;26.40;;;13.77;;
5052;SDS011;2545;50.892;5.740;2023-02-21T16:53:59;38.33;;;15.00;;
5052;SDS011;2545;50.892;5.740;2023-02-21T16:56:25;29.27;;;14.23;;
5052;SDS011;2545;50.892;5.740;2023-02-21T16:58:52;32.00;;;15.87;;
5052;SDS011;2545;50.892;5.740;2023-02-21T17:01:27;27.90;;;14.10;;
5052;SDS011;2545;50.892;5.740;2023-02-21T17:03:54;33.50;;;14.47;;
5052;SDS011;2545;50.892;5.740;2023-02-21T17:06:20;29.17;;;14.13;;
5052;SDS011;2545;50.892;5.740;2023-02-21T17:08:48;29.20;;;14.43;;
5052;SDS011;2545;50.892;5.740;2023-02-21T17:11:14;35.83;;;14.90;;
5052;SDS011;2545;50.892;5.740;2023-02-21T17:13:39;35.23;;;15.87;;
5052;SDS011;2545;50.892;5.740;2023-02-21T17:16:04;29.33;;;14.13;;
5052;SDS011;2545;50.892;5.740;2023-02-21T17:18:30;33.67;;;15.43;;
5052;SDS011;2545;50.892;5.740;2023-02-21T17:20:56;40.23;;;19.80;;
5052;SDS011;2545;50.892;5.740;2023-02-21T17:23:22;102.07;;;41.13;;
5052;SDS011;2545;50.892;5.740;2023-02-21T17:25:47;60.10;;;27.50;;
5052;SDS011;2545;50.892;5.740;2023-02-21T17:28:13;53.00;;;25.30;;
5052;SDS011;2545;50.892;5.740;2023-02-21T17:30:38;53.03;;;24.87;;
5052;SDS011;2545;50.892;5.740;2023-02-21T17:33:03;41.93;;;20.50;;
5052;SDS011;2545;50.892;5.740;2023-02-21T17:35:29;46.80;;;23.77;;
5052;SDS011;2545;50.892;5.740;2023-02-21T17:37:55;43.63;;;22.70;;
5052;SDS011;2545;50.892;5.740;2023-02-21T17:40:25;41.10;;;19.97;;
5052;SDS011;2545;50.892;5.740;2023-02-21T17:42:51;40.60;;;18.27;;
5052;SDS011;2545;50.892;5.740;2023-02-21T17:45:17;35.70;;;17.57;;
5052;SDS011;2545;50.892;5.740;2023-02-21T17:47:44;39.23;;;16.67;;
5052;SDS011;2545;50.892;5.740;2023-02-21T17:50:09;32.97;;;16.00;;
5052;SDS011;2545;50.892;5.740;2023-02-21T17:52:35;38.07;;;18.50;;
5052;SDS011;2545;50.892;5.740;2023-02-21T17:55:01;33.20;;;15.70;;
5052;SDS011;2545;50.892;5.740;2023-02-21T17:57:31;32.47;;;15.63;;
5052;SDS011;2545;50.892;5.740;2023-02-21T18:00:01;35.83;;;16.20;;
5052;SDS011;2545;50.892;5.740;2023-02-21T18:02:28;38.20;;;17.60;;
5052;SDS011;2545;50.892;5.740;2023-02-21T18:04:53;37.50;;;17.33;;
5052;SDS011;2545;50.892;5.740;2023-02-21T18:07:19;36.70;;;17.03;;
5052;SDS011;2545;50.892;5.740;2023-02-21T18:09:45;35.37;;;15.80;;
5052;SDS011;2545;50.892;5.740;2023-02-21T18:12:11;37.90;;;17.20;;
5052;SDS011;2545;50.892;5.740;2023-02-21T18:14:36;32.70;;;15.30;;
5052;SDS011;2545;50.892;5.740;2023-02-21T18:17:02;31.87;;;14.97;;
5052;SDS011;2545;50.892;5.740;2023-02-21T18:19:27;29.90;;;14.87;;
5052;SDS011;2545;50.892;5.740;2023-02-21T18:21:53;35.60;;;17.13;;